createdAt,value
2024-02-28T00:02:17.471Z,15.80
2024-02-28T00:04:48.835Z,15.80
2024-02-28T00:07:20.048Z,15.50
2024-02-28T00:09:51.043Z,15.60
2024-02-28T00:12:21.998Z,15.40
2024-02-28T00:14:53.231Z,15.50
2024-02-28T00:17:24.990Z,15.90
2024-02-28T00:19:55.952Z,15.70
2024-02-28T00:22:26.872Z,15.70
2024-02-28T00:24:57.833Z,15.20
2024-02-28T00:27:28.816Z,15.70
2024-02-28T00:29:59.752Z,16.00
2024-02-28T00:32:30.647Z,16.10
2024-02-28T00:35:01.760Z,15.90
2024-02-28T00:37:32.678Z,15.80
2024-02-28T00:40:03.836Z,15.90
2024-02-28T00:42:34.790Z,15.70
2024-02-28T00:45:06.397Z,15.70
2024-02-28T00:47:37.735Z,15.60
2024-02-28T00:50:09.530Z,15.70
2024-02-28T00:52:40.516Z,15.60
2024-02-28T00:55:11.553Z,15.60
2024-02-28T00:57:42.461Z,15.70
2024-02-28T01:00:13.956Z,15.50
2024-02-28T01:02:44.978Z,15.40
2024-02-28T01:05:16.057Z,15.60
2024-02-28T01:07:47.014Z,15.70
2024-02-28T01:10:17.899Z,15.80
2024-02-28T01:12:48.887Z,15.70
2024-02-28T01:15:20.056Z,15.80
2024-02-28T01:17:51.088Z,15.50
2024-02-28T01:20:21.967Z,15.70
2024-02-28T01:22:53.259Z,15.60
2024-02-28T01:25:24.132Z,15.70
2024-02-28T01:27:57.822Z,15.60
2024-02-28T01:30:28.807Z,15.50
2024-02-28T01:32:59.755Z,15.30
2024-02-28T01:35:30.707Z,15.40
2024-02-28T01:38:01.619Z,15.40
2024-02-28T01:40:32.568Z,15.30
2024-02-28T01:43:09.930Z,15.10
2024-02-28T01:45:40.927Z,15.10
2024-02-28T01:48:13.310Z,15.50
2024-02-28T01:50:44.645Z,15.40
2024-02-28T01:53:17.225Z,15.30
2024-02-28T01:55:49.162Z,15.50
2024-02-28T01:58:20.753Z,15.40
2024-02-28T02:00:53.127Z,15.40
2024-02-28T02:03:24.113Z,15.30
2024-02-28T02:05:54.997Z,15.60
2024-02-28T02:08:25.934Z,15.20
2024-02-28T02:10:57.571Z,15.20
2024-02-28T02:13:28.532Z,15.30
2024-02-28T02:15:59.599Z,15.10
2024-02-28T02:18:30.633Z,15.50
2024-02-28T02:21:08.188Z,15.30
2024-02-28T02:23:42.454Z,15.50
2024-02-28T02:26:13.414Z,15.10
2024-02-28T02:28:44.313Z,15.30
2024-02-28T02:31:15.868Z,15.50
2024-02-28T02:33:46.794Z,15.50
2024-02-28T02:36:17.755Z,14.90
2024-02-28T02:38:48.666Z,15.20
2024-02-28T02:41:19.710Z,15.10
2024-02-28T02:43:50.591Z,15.50
2024-02-28T02:46:21.552Z,15.10
2024-02-28T02:48:54.033Z,15.40
2024-02-28T02:51:25.181Z,15.30
2024-02-28T02:53:56.091Z,15.40
2024-02-28T02:56:27.050Z,15.40
2024-02-28T02:58:57.944Z,15.10
2024-02-28T03:01:28.917Z,15.40
2024-02-28T03:03:59.864Z,15.00
2024-02-28T03:06:30.939Z,15.20
2024-02-28T03:09:01.931Z,14.80
2024-02-28T03:11:32.862Z,15.30
2024-02-28T03:14:04.093Z,14.70
2024-02-28T03:16:38.819Z,14.60
2024-02-28T03:19:11.524Z,15.30
2024-02-28T03:21:42.574Z,14.90
2024-02-28T03:24:13.567Z,15.40
2024-02-28T03:26:45.582Z,14.40
2024-02-28T03:29:16.484Z,14.40
2024-02-28T03:31:47.409Z,14.00
2024-02-28T03:34:18.265Z,14.40
2024-02-28T03:36:49.320Z,14.80
2024-02-28T03:39:20.285Z,14.80
2024-02-28T03:41:51.231Z,15.10
2024-02-28T03:44:22.728Z,15.00
2024-02-28T03:46:53.716Z,14.80
2024-02-28T03:49:24.578Z,15.10
2024-02-28T03:51:55.551Z,14.80
2024-02-28T03:54:26.497Z,14.70
2024-02-28T03:56:57.482Z,14.40
2024-02-28T03:59:28.408Z,14.60
2024-02-28T04:01:59.313Z,14.60
2024-02-28T04:04:30.240Z,14.90
2024-02-28T04:07:01.174Z,14.80
2024-02-28T04:09:32.163Z,14.90
2024-02-28T04:12:04.308Z,14.60
2024-02-28T04:14:38.183Z,14.80
2024-02-28T04:17:09.053Z,15.00
2024-02-28T04:19:40.820Z,14.70
2024-02-28T04:22:11.710Z,15.00
2024-02-28T04:24:42.608Z,14.30
2024-02-28T04:27:13.701Z,14.80
2024-02-28T04:29:44.653Z,14.90
2024-02-28T04:32:15.537Z,14.70
2024-02-28T04:34:46.433Z,14.10
2024-02-28T04:37:17.353Z,14.70
2024-02-28T04:39:48.324Z,14.60
2024-02-28T04:42:19.307Z,14.10
2024-02-28T04:44:50.209Z,14.30
2024-02-28T04:47:26.451Z,14.30
2024-02-28T04:50:00.585Z,13.50
2024-02-28T04:52:32.308Z,14.20
2024-02-28T04:55:03.604Z,14.10
2024-02-28T04:57:34.660Z,13.80
2024-02-28T05:00:06.646Z,13.70
2024-02-28T05:02:37.608Z,13.90
2024-02-28T05:05:08.739Z,14.00
2024-02-28T05:07:39.621Z,14.10
2024-02-28T05:10:10.910Z,14.30
2024-02-28T05:12:42.027Z,13.90
2024-02-28T05:15:13.067Z,14.20
2024-02-28T05:17:44.065Z,14.60
2024-02-28T05:20:15.087Z,14.70
2024-02-28T05:22:45.948Z,13.80
2024-02-28T05:25:16.957Z,14.60
2024-02-28T05:27:47.867Z,14.70
2024-02-28T05:30:18.870Z,14.50
2024-02-28T05:32:49.771Z,14.60
2024-02-28T05:35:20.756Z,14.10
2024-02-28T05:37:58.307Z,14.40
2024-02-28T05:40:29.371Z,14.40
2024-02-28T05:43:00.300Z,14.40
2024-02-28T05:45:31.360Z,14.00
2024-02-28T05:48:02.339Z,15.60
2024-02-28T05:50:34.119Z,16.90
2024-02-28T05:53:05.167Z,16.30
2024-02-28T05:55:36.042Z,15.50
2024-02-28T05:58:06.965Z,15.80
2024-02-28T06:00:38.845Z,15.10
2024-02-28T06:03:09.789Z,14.90
2024-02-28T06:05:43.367Z,15.00
2024-02-28T06:08:15.139Z,14.90
2024-02-28T06:10:48.228Z,15.00
2024-02-28T06:13:20.092Z,13.90
2024-02-28T06:15:51.056Z,14.40
2024-02-28T06:18:24.155Z,14.50
2024-02-28T06:20:58.098Z,14.30
2024-02-28T06:23:30.302Z,14.20
2024-02-28T06:26:01.684Z,14.20
2024-02-28T06:28:33.616Z,13.50
2024-02-28T06:31:04.663Z,13.70
2024-02-28T06:33:35.668Z,14.00
2024-02-28T06:36:06.855Z,14.20
2024-02-28T06:38:38.958Z,14.50
2024-02-28T06:41:09.831Z,14.40
2024-02-28T06:43:40.834Z,14.30
2024-02-28T06:46:11.772Z,13.30
2024-02-28T06:48:42.683Z,13.80
2024-02-28T06:51:16.548Z,14.00
2024-02-28T06:53:48.829Z,14.40
2024-02-28T06:56:19.790Z,13.80
2024-02-28T06:58:50.746Z,14.10
2024-02-28T07:01:22.068Z,13.80
2024-02-28T07:03:53.153Z,14.60
2024-02-28T07:06:24.085Z,14.40
2024-02-28T07:08:55.102Z,13.80
2024-02-28T07:11:26.026Z,14.50
2024-02-28T07:13:58.789Z,13.90
2024-02-28T07:16:39.078Z,14.60
2024-02-28T07:19:09.964Z,14.80
2024-02-28T07:21:41.119Z,14.10
2024-02-28T07:24:12.105Z,14.20
2024-02-28T07:26:43.091Z,14.00
2024-02-28T07:29:13.998Z,14.00
2024-02-28T07:31:46.592Z,14.50
2024-02-28T07:34:17.619Z,14.90
2024-02-28T07:36:48.595Z,14.80
2024-02-28T07:39:19.857Z,13.90
2024-02-28T07:41:55.029Z,14.30
2024-02-28T07:44:27.419Z,14.60
2024-02-28T07:47:01.534Z,14.40
2024-02-28T07:49:32.515Z,15.00
2024-02-28T07:52:03.591Z,15.00
2024-02-28T07:54:34.649Z,14.70
2024-02-28T07:57:05.867Z,14.20
2024-02-28T07:59:43.815Z,13.70
2024-02-28T08:02:14.955Z,13.90
2024-02-28T08:04:46.110Z,14.20
2024-02-28T08:07:17.013Z,14.00
2024-02-28T08:09:47.974Z,14.30
2024-02-28T08:12:19.122Z,14.20
2024-02-28T08:14:50.117Z,13.60
2024-02-28T08:17:21.038Z,14.30
2024-02-28T08:19:51.985Z,14.60
2024-02-28T08:22:22.897Z,14.30
2024-02-28T08:24:54.057Z,14.20
2024-02-28T08:27:26.299Z,14.10
2024-02-28T08:29:57.341Z,14.00
2024-02-28T08:32:28.235Z,14.20
2024-02-28T08:34:59.231Z,14.20
2024-02-28T08:37:30.172Z,14.10
2024-02-28T08:40:01.242Z,14.00
2024-02-28T08:42:32.192Z,14.30
2024-02-28T08:45:04.717Z,14.50
2024-02-28T08:47:35.805Z,14.60
2024-02-28T08:50:07.379Z,14.40
2024-02-28T08:52:38.300Z,14.50
2024-02-28T08:55:09.563Z,14.90
2024-02-28T08:57:40.514Z,15.00
2024-02-28T09:00:12.917Z,14.50
2024-02-28T09:02:43.839Z,15.00
2024-02-28T09:05:14.811Z,14.80
2024-02-28T09:07:45.832Z,14.50
2024-02-28T09:10:16.986Z,14.90
2024-02-28T09:12:48.663Z,14.30
2024-02-28T09:15:20.596Z,14.70
2024-02-28T09:17:51.618Z,14.10
2024-02-28T09:20:22.547Z,13.90
2024-02-28T09:22:53.491Z,14.40
2024-02-28T09:25:27.020Z,14.90
2024-02-28T09:28:01.270Z,14.70
2024-02-28T09:30:39.895Z,14.40
2024-02-28T09:33:17.045Z,14.60
2024-02-28T09:35:48.111Z,15.00
2024-02-28T09:38:20.341Z,15.10
2024-02-28T09:40:51.462Z,15.20
2024-02-28T09:43:33.412Z,15.60
2024-02-28T09:46:08.918Z,15.20
2024-02-28T09:48:46.437Z,15.50
2024-02-28T09:51:22.824Z,15.30
2024-02-28T09:53:53.848Z,15.90
2024-02-28T09:56:25.353Z,14.90
2024-02-28T09:58:57.208Z,14.70
2024-02-28T10:01:29.226Z,15.10
2024-02-28T10:04:01.981Z,15.40
2024-02-28T10:06:32.972Z,15.40
2024-02-28T10:09:04.208Z,15.30
2024-02-28T10:11:36.871Z,15.40
2024-02-28T10:14:07.867Z,15.50
2024-02-28T10:16:39.294Z,15.10
2024-02-28T10:19:10.278Z,14.70
2024-02-28T10:21:41.272Z,15.00
2024-02-28T10:24:16.838Z,15.00
2024-02-28T10:26:56.419Z,15.60
2024-02-28T10:29:29.316Z,15.30
2024-02-28T10:32:01.371Z,15.20
2024-02-28T10:34:32.864Z,15.30
2024-02-28T10:37:06.396Z,15.20
2024-02-28T10:39:39.122Z,15.10
2024-02-28T10:42:12.698Z,14.70
2024-02-28T10:44:44.448Z,14.90
2024-02-28T10:47:16.740Z,14.80
2024-02-28T10:49:47.725Z,15.00
2024-02-28T10:52:23.186Z,15.20
2024-02-28T10:55:01.769Z,15.20
2024-02-28T10:57:34.955Z,15.70
2024-02-28T11:00:07.754Z,14.90
2024-02-28T11:02:39.171Z,14.60
2024-02-28T11:05:10.102Z,14.80
2024-02-28T11:07:43.915Z,15.10
2024-02-28T11:10:15.719Z,15.20
2024-02-28T11:12:56.593Z,15.20
2024-02-28T11:15:31.105Z,15.50
2024-02-28T11:18:10.778Z,15.40
2024-02-28T11:20:41.804Z,15.30
2024-02-28T11:23:13.590Z,15.30
2024-02-28T11:25:44.689Z,15.20
2024-02-28T11:28:17.292Z,15.60
2024-02-28T11:30:48.178Z,15.60
2024-02-28T11:33:20.025Z,15.60
2024-02-28T11:36:00.925Z,15.60
2024-02-28T11:38:32.794Z,15.60
2024-02-28T11:41:04.740Z,15.70
2024-02-28T11:43:47.075Z,15.40
2024-02-28T11:46:22.790Z,15.10
2024-02-28T11:48:55.128Z,15.20
2024-02-28T11:51:26.189Z,15.30
2024-02-28T11:53:57.121Z,15.80
2024-02-28T11:56:28.042Z,15.20
2024-02-28T11:59:00.022Z,15.30
2024-02-28T12:01:45.431Z,15.40
2024-02-28T12:04:17.650Z,15.40
2024-02-28T12:06:48.625Z,15.60
2024-02-28T12:09:25.053Z,14.90
2024-02-28T12:12:02.961Z,15.10
2024-02-28T12:14:37.672Z,15.00
2024-02-28T12:17:09.726Z,15.20
2024-02-28T12:19:40.672Z,14.80
2024-02-28T12:22:11.952Z,15.00
2024-02-28T12:24:42.923Z,15.00
2024-02-28T12:27:13.901Z,15.00
2024-02-28T12:29:44.892Z,15.30
2024-02-28T12:32:18.145Z,15.60
2024-02-28T12:34:49.328Z,15.00
2024-02-28T12:37:20.272Z,15.60
2024-02-28T12:39:52.621Z,15.50
2024-02-28T12:42:23.645Z,15.60
2024-02-28T12:44:54.560Z,15.20
2024-02-28T12:47:25.585Z,15.40
2024-02-28T12:49:56.454Z,15.60
2024-02-28T12:52:27.549Z,15.40
2024-02-28T12:54:58.531Z,15.70
2024-02-28T12:57:29.885Z,15.70
2024-02-28T13:00:00.784Z,15.20
2024-02-28T13:02:31.731Z,15.50
2024-02-28T13:05:02.659Z,16.10
2024-02-28T13:07:33.571Z,15.60
2024-02-28T13:10:06.042Z,15.30
2024-02-28T13:12:37.351Z,15.10
2024-02-28T13:15:09.279Z,15.20
2024-02-28T13:17:40.459Z,15.10
2024-02-28T13:20:11.767Z,15.00
2024-02-28T13:22:42.647Z,14.90
2024-02-28T13:25:15.335Z,15.40
2024-02-28T13:27:47.742Z,15.20
2024-02-28T13:30:18.763Z,14.90
2024-02-28T13:32:50.313Z,14.90
2024-02-28T13:35:21.449Z,14.90
2024-02-28T13:37:54.226Z,15.10
2024-02-28T13:40:25.167Z,15.40
2024-02-28T13:42:56.470Z,15.50
2024-02-28T13:45:27.414Z,15.40
2024-02-28T13:47:58.301Z,15.40
2024-02-28T13:50:32.859Z,15.50
2024-02-28T13:53:04.929Z,15.50
2024-02-28T13:55:35.820Z,15.70
2024-02-28T13:58:10.856Z,15.40
2024-02-28T14:00:42.417Z,15.60
2024-02-28T14:03:13.555Z,15.50
2024-02-28T14:05:44.700Z,15.60
2024-02-28T14:08:15.697Z,15.10
2024-02-28T14:10:46.655Z,15.30
2024-02-28T14:13:19.585Z,15.70
2024-02-28T14:15:52.199Z,15.30
2024-02-28T14:18:23.422Z,15.00
2024-02-28T14:20:54.409Z,15.20
2024-02-28T14:23:25.307Z,15.30
2024-02-28T14:25:56.230Z,15.50
2024-02-28T14:28:27.172Z,14.90
2024-02-28T14:30:58.232Z,15.10
2024-02-28T14:33:29.331Z,14.80
2024-02-28T14:36:01.356Z,15.20
2024-02-28T14:38:32.642Z,14.80
2024-02-28T14:41:04.433Z,15.10
2024-02-28T14:43:35.338Z,15.20
2024-02-28T14:46:06.229Z,15.80
2024-02-28T14:48:37.380Z,15.90
2024-02-28T14:51:10.394Z,15.70
2024-02-28T14:53:41.858Z,15.90
2024-02-28T14:56:12.849Z,15.80
2024-02-28T14:58:43.738Z,15.20
2024-02-28T15:01:14.827Z,15.80
2024-02-28T15:03:46.295Z,15.50
2024-02-28T15:06:17.248Z,15.90
2024-02-28T15:08:48.139Z,15.60
2024-02-28T15:11:20.194Z,15.00
2024-02-28T15:13:51.275Z,15.70
2024-02-28T15:16:22.189Z,15.90
2024-02-28T15:18:54.222Z,15.90
2024-02-28T15:21:26.461Z,15.70
2024-02-28T15:23:57.453Z,15.70
2024-02-28T15:26:35.314Z,15.70
2024-02-28T15:29:13.226Z,15.20
2024-02-28T15:31:44.159Z,15.50
2024-02-28T15:34:15.040Z,15.80
2024-02-28T15:36:46.163Z,16.10
2024-02-28T15:39:17.681Z,16.20
2024-02-28T15:41:48.923Z,16.00
2024-02-28T15:44:19.832Z,15.80
2024-02-28T15:46:50.779Z,15.60
2024-02-28T15:49:29.041Z,15.60
2024-02-28T15:52:10.613Z,15.60
2024-02-28T15:54:41.723Z,16.00
2024-02-28T15:57:12.668Z,15.70
2024-02-28T15:59:43.595Z,15.70
2024-02-28T16:02:14.608Z,15.60
2024-02-28T16:04:46.527Z,15.50
2024-02-28T16:07:18.027Z,15.40
2024-02-28T16:09:50.700Z,15.90
2024-02-28T16:12:21.683Z,15.70
2024-02-28T16:14:52.675Z,15.60
2024-02-28T16:17:23.606Z,15.60
2024-02-28T16:19:54.508Z,15.50
2024-02-28T16:22:25.724Z,15.80
2024-02-28T16:24:56.705Z,15.60
2024-02-28T16:27:28.202Z,15.60
2024-02-28T16:29:59.324Z,15.50
2024-02-28T16:32:31.581Z,15.80
2024-02-28T16:35:03.775Z,15.60
2024-02-28T16:37:34.822Z,16.00
2024-02-28T16:40:07.900Z,16.80
2024-02-28T16:42:39.837Z,17.20
2024-02-28T16:45:10.771Z,16.80
2024-02-28T16:47:43.551Z,16.10
2024-02-28T16:50:14.567Z,16.40
2024-02-28T16:52:45.510Z,16.20
2024-02-28T16:55:16.561Z,16.30
2024-02-28T16:57:47.911Z,16.20
2024-02-28T17:00:21.538Z,15.90
2024-02-28T17:02:52.461Z,15.60
2024-02-28T17:05:23.795Z,15.50
2024-02-28T17:08:02.364Z,15.40
2024-02-28T17:10:48.781Z,14.80
2024-02-28T17:13:32.536Z,15.40
2024-02-28T17:16:13.322Z,15.50
2024-02-28T17:18:48.571Z,15.60
2024-02-28T17:21:23.172Z,15.60
2024-02-28T17:23:58.761Z,15.00
2024-02-28T17:26:47.501Z,15.60
2024-02-28T17:29:30.454Z,15.80
2024-02-28T17:32:02.438Z,15.60
2024-02-28T17:34:43.400Z,15.30
2024-02-28T17:37:44.456Z,15.30
2024-02-28T17:40:25.749Z,15.50
2024-02-28T17:42:58.650Z,15.40
2024-02-28T17:45:45.365Z,15.40
2024-02-28T17:48:34.038Z,15.40
2024-02-28T17:51:09.132Z,15.40
2024-02-28T17:53:52.746Z,15.60
2024-02-28T17:56:27.836Z,15.40
2024-02-28T17:59:05.645Z,15.70
2024-02-28T18:01:57.206Z,15.60
2024-02-28T18:04:52.166Z,15.70
2024-02-28T18:07:29.967Z,15.70
2024-02-28T18:10:12.814Z,16.00
2024-02-28T18:13:07.172Z,15.70
2024-02-28T18:15:54.868Z,15.40
2024-02-28T18:18:45.162Z,15.70
2024-02-28T18:21:23.084Z,15.60
2024-02-28T18:24:06.264Z,15.50
2024-02-28T18:26:49.236Z,15.40
2024-02-28T18:29:29.545Z,15.60
2024-02-28T18:32:11.538Z,15.70
2024-02-28T18:35:03.909Z,15.90
2024-02-28T18:37:43.500Z,15.40
2024-02-28T18:40:25.093Z,15.20
2024-02-28T18:43:03.194Z,15.30
2024-02-28T18:45:38.846Z,15.40
2024-02-28T18:48:18.832Z,15.50
2024-02-28T18:51:05.318Z,15.60
2024-02-28T18:53:46.910Z,15.50
2024-02-28T18:56:17.808Z,15.50
2024-02-28T18:58:48.782Z,15.10
2024-02-28T19:01:20.211Z,15.10
2024-02-28T19:03:53.893Z,15.20
2024-02-28T19:06:25.911Z,15.10
2024-02-28T19:08:56.922Z,15.10
2024-02-28T19:11:28.004Z,15.00
2024-02-28T19:14:01.111Z,15.40
2024-02-28T19:16:32.852Z,15.40
2024-02-28T19:19:03.913Z,15.50
2024-02-28T19:21:35.753Z,15.20
2024-02-28T19:24:07.690Z,15.50
2024-02-28T19:26:38.597Z,15.60
2024-02-28T19:29:10.307Z,15.70
2024-02-28T19:31:41.225Z,15.70
2024-02-28T19:34:12.335Z,15.20
2024-02-28T19:36:44.334Z,15.50
2024-02-28T19:39:23.573Z,15.60
2024-02-28T19:41:54.860Z,15.60
2024-02-28T19:44:25.846Z,15.40
2024-02-28T19:46:56.805Z,15.50
2024-02-28T19:49:27.766Z,15.40
2024-02-28T19:51:59.023Z,15.40
2024-02-28T19:54:29.972Z,15.50
2024-02-28T19:57:01.141Z,15.70
2024-02-28T19:59:32.030Z,15.40
2024-02-28T20:02:02.938Z,15.70
2024-02-28T20:04:33.823Z,15.60
2024-02-28T20:07:05.578Z,15.60
2024-02-28T20:09:37.578Z,15.40
2024-02-28T20:12:09.921Z,15.30
2024-02-28T20:14:42.500Z,15.30
2024-02-28T20:17:17.627Z,15.40
2024-02-28T20:19:48.651Z,15.30
2024-02-28T20:22:20.822Z,15.30
2024-02-28T20:24:51.785Z,15.20
2024-02-28T20:27:22.682Z,15.00
2024-02-28T20:29:53.587Z,15.10
2024-02-28T20:32:24.547Z,15.10
2024-02-28T20:34:55.524Z,15.10
2024-02-28T20:37:27.410Z,15.20
2024-02-28T20:39:58.456Z,15.20
2024-02-28T20:42:29.364Z,15.50
2024-02-28T20:45:00.389Z,15.20
2024-02-28T20:47:31.324Z,14.70
2024-02-28T20:50:05.961Z,14.90
2024-02-28T20:52:37.458Z,14.70
2024-02-28T20:55:10.133Z,14.80
2024-02-28T20:57:42.070Z,15.00
2024-02-28T21:00:13.821Z,15.10
2024-02-28T21:02:44.777Z,14.90
2024-02-28T21:05:16.438Z,15.00
2024-02-28T21:07:52.961Z,15.00
2024-02-28T21:10:24.893Z,15.00
2024-02-28T21:12:56.113Z,14.90
2024-02-28T21:15:27.447Z,14.90
2024-02-28T21:17:58.950Z,14.80
2024-02-28T21:20:30.734Z,14.60
2024-02-28T21:23:01.633Z,14.60
2024-02-28T21:25:32.570Z,14.40
2024-02-28T21:28:04.257Z,14.00
2024-02-28T21:30:35.377Z,14.40
2024-02-28T21:33:06.505Z,14.90
2024-02-28T21:35:43.415Z,15.20
2024-02-28T21:38:14.290Z,14.90
2024-02-28T21:40:45.334Z,14.40
2024-02-28T21:43:16.257Z,14.40
2024-02-28T21:45:47.207Z,14.30
2024-02-28T21:48:18.216Z,14.30
2024-02-28T21:50:49.275Z,14.10
2024-02-28T21:53:20.272Z,13.80
2024-02-28T21:55:51.836Z,13.60
2024-02-28T21:58:22.778Z,13.60
2024-02-28T22:00:54.383Z,13.80
2024-02-28T22:03:25.919Z,13.50
2024-02-28T22:06:02.434Z,13.60
2024-02-28T22:08:33.332Z,13.50
2024-02-28T22:11:04.476Z,13.40
2024-02-28T22:13:35.411Z,13.30
2024-02-28T22:16:06.531Z,13.40
2024-02-28T22:18:37.713Z,13.20
2024-02-28T22:21:08.732Z,13.30
2024-02-28T22:23:39.764Z,13.00
2024-02-28T22:26:10.979Z,12.90
2024-02-28T22:28:41.895Z,12.90
2024-02-28T22:31:12.938Z,12.80
2024-02-28T22:33:44.718Z,12.80
2024-02-28T22:36:15.755Z,12.80
2024-02-28T22:38:47.892Z,12.40
2024-02-28T22:41:28.089Z,12.50
2024-02-28T22:43:58.997Z,12.50
2024-02-28T22:46:29.945Z,12.30
2024-02-28T22:49:04.486Z,11.90
2024-02-28T22:51:35.673Z,12.10
2024-02-28T22:54:08.203Z,12.00
2024-02-28T22:56:39.114Z,12.00
2024-02-28T22:59:10.037Z,11.60
2024-02-28T23:01:42.215Z,11.70
2024-02-28T23:04:13.414Z,12.00
2024-02-28T23:06:44.335Z,12.10
2024-02-28T23:09:15.417Z,12.20
2024-02-28T23:11:46.603Z,11.90
2024-02-28T23:14:19.390Z,11.80
2024-02-28T23:16:50.276Z,11.80
2024-02-28T23:19:21.519Z,12.10
2024-02-28T23:21:52.561Z,11.80
2024-02-28T23:24:23.449Z,11.80
2024-02-28T23:26:54.445Z,11.70
2024-02-28T23:29:25.377Z,11.80
2024-02-28T23:31:56.287Z,11.50
2024-02-28T23:34:27.242Z,11.40
2024-02-28T23:36:58.182Z,11.50
2024-02-28T23:39:29.133Z,11.20
2024-02-28T23:42:00.096Z,11.10
2024-02-28T23:44:31.239Z,11.10
2024-02-28T23:47:02.132Z,11.10
2024-02-28T23:49:33.003Z,11.00
2024-02-28T23:52:04.295Z,11.10
2024-02-28T23:54:35.995Z,10.90
2024-02-28T23:57:06.933Z,11.00
2024-02-28T23:59:38.120Z,11.10
